<?xml version="1.0" encoding="UTF-8" standalone="no" ?>
<gpx xmlns="http://www.topografix.com/GPX/1/1" xmlns:xsi="http://www.w3.org/2001/XMLSchema-instance" xsi:schemaLocation="http://www.topografix.com/GPX/1/1 http://www.topografix.com/GPX/1/1/gpx.xsd" version="1.1" creator="VisuGPX - https://www.visugpx.com">
  <metadata>
    <name>Arboras et la Grotte aux Fées</name>
    <desc><![CDATA[#fait]]></desc>
  </metadata>
  <wpt lat="43.71213" lon="3.49407">
    <ele>280</ele>
    <name><![CDATA[Parking Dolmen du Col de Cocalières]]></name>
  </wpt>
  <wpt lat="43.71424" lon="3.49801">
    <ele>270</ele>
    <name><![CDATA[Carrefour de la boucle]]></name>
  </wpt>
  <wpt lat="43.71552" lon="3.49855">
    <ele>258</ele>
    <name><![CDATA[Carrefour de boucle, en face]]></name>
  </wpt>
  <wpt lat="43.71778" lon="3.50209">
    <ele>250</ele>
    <name><![CDATA[Sentier à gauche]]></name>
  </wpt>
  <wpt lat="43.72644" lon="3.50402">
    <ele>301</ele>
    <name><![CDATA[Vers la Grotte aux Fées]]></name>
  </wpt>
  <wpt lat="43.73758" lon="3.50609">
    <ele>401</ele>
    <name><![CDATA[À droite sur le chemin]]></name>
  </wpt>
  <wpt lat="43.74018" lon="3.50773">
    <ele>425</ele>
    <name><![CDATA[Jonction avec la piste]]></name>
  </wpt>
  <wpt lat="43.73532" lon="3.51772">
    <ele>522</ele>
    <name><![CDATA[Départ petit sentier]]></name>
  </wpt>
  <wpt lat="43.72849" lon="3.52257">
    <ele>493</ele>
    <name><![CDATA[Tout droit sur la piste]]></name>
  </wpt>
  <wpt lat="43.7173" lon="3.51529">
    <ele>426</ele>
    <name><![CDATA[Abandonner le GR]]></name>
  </wpt>
  <wpt lat="43.71238" lon="3.51357">
    <ele>380</ele>
    <name><![CDATA[À droite sur le GR]]></name>
  </wpt>
  <wpt lat="43.70901" lon="3.50509">
    <ele>304</ele>
    <name><![CDATA[Tourner à droite]]></name>
  </wpt>
  <wpt lat="43.71071" lon="3.50175">
    <ele>273</ele>
    <name><![CDATA[À gauche entre les vignes]]></name>
  </wpt>
  <wpt lat="43.71214" lon="3.49407">
    <ele>280</ele>
    <name><![CDATA[Parking Dolmen du Col de Cocalières]]></name>
  </wpt>
  <trk>
    <name><![CDATA[Arboras et la Grotte aux Fées]]></name>
    <trkseg>
      <trkpt lat="43.71213" lon="3.49407">
        <ele>280</ele>
        <time>2021-09-18T11:33:52+02:00</time>
      </trkpt>
      <trkpt lat="43.71243" lon="3.4948">
        <ele>278</ele>
        <time>2021-09-18T11:33:57+02:00</time>
      </trkpt>
      <trkpt lat="43.71246" lon="3.49589">
        <ele>274</ele>
        <time>2021-09-18T11:34:02+02:00</time>
      </trkpt>
      <trkpt lat="43.7131" lon="3.49628">
        <ele>273</ele>
        <time>2021-09-18T11:34:07+02:00</time>
      </trkpt>
      <trkpt lat="43.71361" lon="3.49658">
        <ele>275</ele>
        <time>2021-09-18T11:34:12+02:00</time>
      </trkpt>
      <trkpt lat="43.71406" lon="3.49662">
        <ele>277</ele>
        <time>2021-09-18T11:34:17+02:00</time>
      </trkpt>
      <trkpt lat="43.71424" lon="3.49801">
        <ele>270</ele>
        <time>2021-09-18T11:34:22+02:00</time>
      </trkpt>
      <trkpt lat="43.71479" lon="3.49892">
        <ele>257</ele>
        <time>2021-09-18T11:34:27+02:00</time>
      </trkpt>
      <trkpt lat="43.71552" lon="3.49855">
        <ele>258</ele>
        <time>2021-09-18T11:34:32+02:00</time>
      </trkpt>
      <trkpt lat="43.71567" lon="3.49911">
        <ele>254</ele>
        <time>2021-09-18T11:34:37+02:00</time>
      </trkpt>
      <trkpt lat="43.71598" lon="3.49997">
        <ele>257</ele>
        <time>2021-09-18T11:34:42+02:00</time>
      </trkpt>
      <trkpt lat="43.71634" lon="3.50044">
        <ele>256</ele>
        <time>2021-09-18T11:34:47+02:00</time>
      </trkpt>
      <trkpt lat="43.71673" lon="3.50089">
        <ele>256</ele>
        <time>2021-09-18T11:34:52+02:00</time>
      </trkpt>
      <trkpt lat="43.71722" lon="3.50125">
        <ele>252</ele>
        <time>2021-09-18T11:34:57+02:00</time>
      </trkpt>
      <trkpt lat="43.71741" lon="3.50151">
        <ele>250</ele>
        <time>2021-09-18T11:35:02+02:00</time>
      </trkpt>
      <trkpt lat="43.71764" lon="3.5017">
        <ele>250</ele>
        <time>2021-09-18T11:35:07+02:00</time>
      </trkpt>
      <trkpt lat="43.71778" lon="3.50209">
        <ele>250</ele>
        <time>2021-09-18T11:35:12+02:00</time>
      </trkpt>
      <trkpt lat="43.71805" lon="3.50187">
        <ele>255</ele>
        <time>2021-09-18T11:35:17+02:00</time>
      </trkpt>
      <trkpt lat="43.7184" lon="3.50131">
        <ele>260</ele>
        <time>2021-09-18T11:35:22+02:00</time>
      </trkpt>
      <trkpt lat="43.7187" lon="3.50108">
        <ele>265</ele>
        <time>2021-09-18T11:35:27+02:00</time>
      </trkpt>
      <trkpt lat="43.71904" lon="3.50106">
        <ele>268</ele>
        <time>2021-09-18T11:35:32+02:00</time>
      </trkpt>
      <trkpt lat="43.71917" lon="3.50081">
        <ele>266</ele>
        <time>2021-09-18T11:35:37+02:00</time>
      </trkpt>
      <trkpt lat="43.71933" lon="3.49977">
        <ele>272</ele>
        <time>2021-09-18T11:35:42+02:00</time>
      </trkpt>
      <trkpt lat="43.71943" lon="3.49946">
        <ele>277</ele>
        <time>2021-09-18T11:35:47+02:00</time>
      </trkpt>
      <trkpt lat="43.71964" lon="3.49931">
        <ele>276</ele>
        <time>2021-09-18T11:35:52+02:00</time>
      </trkpt>
      <trkpt lat="43.72018" lon="3.49957">
        <ele>272</ele>
        <time>2021-09-18T11:35:57+02:00</time>
      </trkpt>
      <trkpt lat="43.72026" lon="3.49973">
        <ele>272</ele>
        <time>2021-09-18T11:36:02+02:00</time>
      </trkpt>
      <trkpt lat="43.7206" lon="3.49984">
        <ele>271</ele>
        <time>2021-09-18T11:36:07+02:00</time>
      </trkpt>
      <trkpt lat="43.72085" lon="3.49953">
        <ele>275</ele>
        <time>2021-09-18T11:36:12+02:00</time>
      </trkpt>
      <trkpt lat="43.72117" lon="3.49984">
        <ele>275</ele>
        <time>2021-09-18T11:36:17+02:00</time>
      </trkpt>
      <trkpt lat="43.72154" lon="3.50067">
        <ele>274</ele>
        <time>2021-09-18T11:36:22+02:00</time>
      </trkpt>
      <trkpt lat="43.72192" lon="3.50144">
        <ele>275</ele>
        <time>2021-09-18T11:36:27+02:00</time>
      </trkpt>
      <trkpt lat="43.72225" lon="3.50166">
        <ele>273</ele>
        <time>2021-09-18T11:36:32+02:00</time>
      </trkpt>
      <trkpt lat="43.72265" lon="3.50168">
        <ele>272</ele>
        <time>2021-09-18T11:36:37+02:00</time>
      </trkpt>
      <trkpt lat="43.72328" lon="3.50201">
        <ele>278</ele>
        <time>2021-09-18T11:36:42+02:00</time>
      </trkpt>
      <trkpt lat="43.72374" lon="3.50205">
        <ele>283</ele>
        <time>2021-09-18T11:36:47+02:00</time>
      </trkpt>
      <trkpt lat="43.72399" lon="3.50244">
        <ele>282</ele>
        <time>2021-09-18T11:36:52+02:00</time>
      </trkpt>
      <trkpt lat="43.72427" lon="3.50256">
        <ele>284</ele>
        <time>2021-09-18T11:36:57+02:00</time>
      </trkpt>
      <trkpt lat="43.7246" lon="3.5023">
        <ele>289</ele>
        <time>2021-09-18T11:37:02+02:00</time>
      </trkpt>
      <trkpt lat="43.72493" lon="3.50236">
        <ele>291</ele>
        <time>2021-09-18T11:37:07+02:00</time>
      </trkpt>
      <trkpt lat="43.72509" lon="3.50229">
        <ele>295</ele>
        <time>2021-09-18T11:37:12+02:00</time>
      </trkpt>
      <trkpt lat="43.72525" lon="3.50235">
        <ele>296</ele>
        <time>2021-09-18T11:37:17+02:00</time>
      </trkpt>
      <trkpt lat="43.7254" lon="3.50287">
        <ele>298</ele>
        <time>2021-09-18T11:37:22+02:00</time>
      </trkpt>
      <trkpt lat="43.72589" lon="3.50338">
        <ele>296</ele>
        <time>2021-09-18T11:37:27+02:00</time>
      </trkpt>
      <trkpt lat="43.72644" lon="3.50402">
        <ele>301</ele>
        <time>2021-09-18T11:37:32+02:00</time>
      </trkpt>
      <trkpt lat="43.72655" lon="3.50359">
        <ele>306</ele>
        <time>2021-09-18T11:37:37+02:00</time>
      </trkpt>
      <trkpt lat="43.72645" lon="3.50406">
        <ele>301</ele>
        <time>2021-09-18T11:37:42+02:00</time>
      </trkpt>
      <trkpt lat="43.72694" lon="3.50453">
        <ele>304</ele>
        <time>2021-09-18T11:37:47+02:00</time>
      </trkpt>
      <trkpt lat="43.72729" lon="3.50496">
        <ele>304</ele>
        <time>2021-09-18T11:37:52+02:00</time>
      </trkpt>
      <trkpt lat="43.72767" lon="3.50557">
        <ele>304</ele>
        <time>2021-09-18T11:37:57+02:00</time>
      </trkpt>
      <trkpt lat="43.7281" lon="3.5059">
        <ele>303</ele>
        <time>2021-09-18T11:38:02+02:00</time>
      </trkpt>
      <trkpt lat="43.72832" lon="3.50623">
        <ele>303</ele>
        <time>2021-09-18T11:38:07+02:00</time>
      </trkpt>
      <trkpt lat="43.72863" lon="3.50614">
        <ele>305</ele>
        <time>2021-09-18T11:38:12+02:00</time>
      </trkpt>
      <trkpt lat="43.72916" lon="3.50666">
        <ele>305</ele>
        <time>2021-09-18T11:38:17+02:00</time>
      </trkpt>
      <trkpt lat="43.72968" lon="3.50667">
        <ele>309</ele>
        <time>2021-09-18T11:38:22+02:00</time>
      </trkpt>
      <trkpt lat="43.72962" lon="3.50627">
        <ele>313</ele>
        <time>2021-09-18T11:38:27+02:00</time>
      </trkpt>
      <trkpt lat="43.72915" lon="3.50568">
        <ele>316</ele>
        <time>2021-09-18T11:38:32+02:00</time>
      </trkpt>
      <trkpt lat="43.72983" lon="3.50544">
        <ele>327</ele>
        <time>2021-09-18T11:38:37+02:00</time>
      </trkpt>
      <trkpt lat="43.73017" lon="3.50522">
        <ele>336</ele>
        <time>2021-09-18T11:38:42+02:00</time>
      </trkpt>
      <trkpt lat="43.73034" lon="3.50509">
        <ele>342</ele>
        <time>2021-09-18T11:38:47+02:00</time>
      </trkpt>
      <trkpt lat="43.73067" lon="3.50605">
        <ele>334</ele>
        <time>2021-09-18T11:38:52+02:00</time>
      </trkpt>
      <trkpt lat="43.73184" lon="3.50647">
        <ele>347</ele>
        <time>2021-09-18T11:38:57+02:00</time>
      </trkpt>
      <trkpt lat="43.73277" lon="3.50646">
        <ele>370</ele>
        <time>2021-09-18T11:39:02+02:00</time>
      </trkpt>
      <trkpt lat="43.73372" lon="3.50696">
        <ele>373</ele>
        <time>2021-09-18T11:39:07+02:00</time>
      </trkpt>
      <trkpt lat="43.73415" lon="3.50698">
        <ele>380</ele>
        <time>2021-09-18T11:39:12+02:00</time>
      </trkpt>
      <trkpt lat="43.73528" lon="3.50735">
        <ele>381</ele>
        <time>2021-09-18T11:39:17+02:00</time>
      </trkpt>
      <trkpt lat="43.73569" lon="3.50734">
        <ele>384</ele>
        <time>2021-09-18T11:39:22+02:00</time>
      </trkpt>
      <trkpt lat="43.73619" lon="3.50694">
        <ele>398</ele>
        <time>2021-09-18T11:39:27+02:00</time>
      </trkpt>
      <trkpt lat="43.73662" lon="3.50649">
        <ele>402</ele>
        <time>2021-09-18T11:39:32+02:00</time>
      </trkpt>
      <trkpt lat="43.73758" lon="3.50609">
        <ele>401</ele>
        <time>2021-09-18T11:39:37+02:00</time>
      </trkpt>
      <trkpt lat="43.73809" lon="3.50626">
        <ele>393</ele>
        <time>2021-09-18T11:39:42+02:00</time>
      </trkpt>
      <trkpt lat="43.7383" lon="3.50654">
        <ele>392</ele>
        <time>2021-09-18T11:39:47+02:00</time>
      </trkpt>
      <trkpt lat="43.73847" lon="3.50713">
        <ele>401</ele>
        <time>2021-09-18T11:39:52+02:00</time>
      </trkpt>
      <trkpt lat="43.73895" lon="3.50702">
        <ele>404</ele>
        <time>2021-09-18T11:39:57+02:00</time>
      </trkpt>
      <trkpt lat="43.73917" lon="3.50683">
        <ele>404</ele>
        <time>2021-09-18T11:40:02+02:00</time>
      </trkpt>
      <trkpt lat="43.73957" lon="3.50671">
        <ele>415</ele>
        <time>2021-09-18T11:40:07+02:00</time>
      </trkpt>
      <trkpt lat="43.73962" lon="3.50708">
        <ele>417</ele>
        <time>2021-09-18T11:40:12+02:00</time>
      </trkpt>
      <trkpt lat="43.73978" lon="3.50751">
        <ele>420</ele>
        <time>2021-09-18T11:40:17+02:00</time>
      </trkpt>
      <trkpt lat="43.74018" lon="3.50773">
        <ele>425</ele>
        <time>2021-09-18T11:40:22+02:00</time>
      </trkpt>
      <trkpt lat="43.74005" lon="3.50804">
        <ele>424</ele>
        <time>2021-09-18T11:40:27+02:00</time>
      </trkpt>
      <trkpt lat="43.73963" lon="3.50842">
        <ele>424</ele>
        <time>2021-09-18T11:40:32+02:00</time>
      </trkpt>
      <trkpt lat="43.73921" lon="3.50849">
        <ele>424</ele>
        <time>2021-09-18T11:40:37+02:00</time>
      </trkpt>
      <trkpt lat="43.73894" lon="3.50867">
        <ele>425</ele>
        <time>2021-09-18T11:40:42+02:00</time>
      </trkpt>
      <trkpt lat="43.73864" lon="3.50859">
        <ele>426</ele>
        <time>2021-09-18T11:40:47+02:00</time>
      </trkpt>
      <trkpt lat="43.73847" lon="3.50866">
        <ele>427</ele>
        <time>2021-09-18T11:40:52+02:00</time>
      </trkpt>
      <trkpt lat="43.73833" lon="3.50901">
        <ele>428</ele>
        <time>2021-09-18T11:40:57+02:00</time>
      </trkpt>
      <trkpt lat="43.7379" lon="3.50947">
        <ele>436</ele>
        <time>2021-09-18T11:41:02+02:00</time>
      </trkpt>
      <trkpt lat="43.7376" lon="3.50959">
        <ele>443</ele>
        <time>2021-09-18T11:41:07+02:00</time>
      </trkpt>
      <trkpt lat="43.73695" lon="3.51111">
        <ele>448</ele>
        <time>2021-09-18T11:41:12+02:00</time>
      </trkpt>
      <trkpt lat="43.73701" lon="3.51142">
        <ele>449</ele>
        <time>2021-09-18T11:41:17+02:00</time>
      </trkpt>
      <trkpt lat="43.73677" lon="3.51164">
        <ele>455</ele>
        <time>2021-09-18T11:41:22+02:00</time>
      </trkpt>
      <trkpt lat="43.73653" lon="3.51213">
        <ele>455</ele>
        <time>2021-09-18T11:41:27+02:00</time>
      </trkpt>
      <trkpt lat="43.73643" lon="3.51252">
        <ele>455</ele>
        <time>2021-09-18T11:41:32+02:00</time>
      </trkpt>
      <trkpt lat="43.73603" lon="3.51297">
        <ele>467</ele>
        <time>2021-09-18T11:41:37+02:00</time>
      </trkpt>
      <trkpt lat="43.73602" lon="3.5139">
        <ele>467</ele>
        <time>2021-09-18T11:41:42+02:00</time>
      </trkpt>
      <trkpt lat="43.73562" lon="3.51458">
        <ele>483</ele>
        <time>2021-09-18T11:41:47+02:00</time>
      </trkpt>
      <trkpt lat="43.73523" lon="3.51567">
        <ele>500</ele>
        <time>2021-09-18T11:41:52+02:00</time>
      </trkpt>
      <trkpt lat="43.73492" lon="3.51617">
        <ele>513</ele>
        <time>2021-09-18T11:41:57+02:00</time>
      </trkpt>
      <trkpt lat="43.73519" lon="3.51652">
        <ele>512</ele>
        <time>2021-09-18T11:42:02+02:00</time>
      </trkpt>
      <trkpt lat="43.73532" lon="3.51718">
        <ele>519</ele>
        <time>2021-09-18T11:42:07+02:00</time>
      </trkpt>
      <trkpt lat="43.73532" lon="3.51772">
        <ele>522</ele>
        <time>2021-09-18T11:42:12+02:00</time>
      </trkpt>
      <trkpt lat="43.735" lon="3.51813">
        <ele>533</ele>
        <time>2021-09-18T11:42:17+02:00</time>
      </trkpt>
      <trkpt lat="43.73507" lon="3.51893">
        <ele>536</ele>
        <time>2021-09-18T11:42:22+02:00</time>
      </trkpt>
      <trkpt lat="43.73473" lon="3.51857">
        <ele>543</ele>
        <time>2021-09-18T11:42:27+02:00</time>
      </trkpt>
      <trkpt lat="43.73439" lon="3.51872">
        <ele>551</ele>
        <time>2021-09-18T11:42:32+02:00</time>
      </trkpt>
      <trkpt lat="43.73419" lon="3.51912">
        <ele>558</ele>
        <time>2021-09-18T11:42:37+02:00</time>
      </trkpt>
      <trkpt lat="43.73395" lon="3.51911">
        <ele>559</ele>
        <time>2021-09-18T11:42:42+02:00</time>
      </trkpt>
      <trkpt lat="43.73331" lon="3.51956">
        <ele>560</ele>
        <time>2021-09-18T11:42:47+02:00</time>
      </trkpt>
      <trkpt lat="43.73319" lon="3.51987">
        <ele>557</ele>
        <time>2021-09-18T11:42:52+02:00</time>
      </trkpt>
      <trkpt lat="43.73295" lon="3.51945">
        <ele>554</ele>
        <time>2021-09-18T11:42:57+02:00</time>
      </trkpt>
      <trkpt lat="43.73278" lon="3.51959">
        <ele>551</ele>
        <time>2021-09-18T11:43:02+02:00</time>
      </trkpt>
      <trkpt lat="43.73276" lon="3.5194">
        <ele>551</ele>
        <time>2021-09-18T11:43:07+02:00</time>
      </trkpt>
      <trkpt lat="43.73252" lon="3.51972">
        <ele>546</ele>
        <time>2021-09-18T11:43:12+02:00</time>
      </trkpt>
      <trkpt lat="43.73229" lon="3.5195">
        <ele>546</ele>
        <time>2021-09-18T11:43:17+02:00</time>
      </trkpt>
      <trkpt lat="43.73174" lon="3.52004">
        <ele>538</ele>
        <time>2021-09-18T11:43:22+02:00</time>
      </trkpt>
      <trkpt lat="43.7316" lon="3.52042">
        <ele>536</ele>
        <time>2021-09-18T11:43:27+02:00</time>
      </trkpt>
      <trkpt lat="43.73098" lon="3.52096">
        <ele>531</ele>
        <time>2021-09-18T11:43:32+02:00</time>
      </trkpt>
      <trkpt lat="43.73062" lon="3.52142">
        <ele>526</ele>
        <time>2021-09-18T11:43:37+02:00</time>
      </trkpt>
      <trkpt lat="43.73007" lon="3.5215">
        <ele>516</ele>
        <time>2021-09-18T11:43:42+02:00</time>
      </trkpt>
      <trkpt lat="43.72874" lon="3.52221">
        <ele>499</ele>
        <time>2021-09-18T11:43:47+02:00</time>
      </trkpt>
      <trkpt lat="43.72849" lon="3.52257">
        <ele>493</ele>
        <time>2021-09-18T11:43:52+02:00</time>
      </trkpt>
      <trkpt lat="43.72791" lon="3.52332">
        <ele>483</ele>
        <time>2021-09-18T11:43:57+02:00</time>
      </trkpt>
      <trkpt lat="43.72815" lon="3.52262">
        <ele>490</ele>
        <time>2021-09-18T11:44:02+02:00</time>
      </trkpt>
      <trkpt lat="43.7284" lon="3.52237">
        <ele>494</ele>
        <time>2021-09-18T11:44:07+02:00</time>
      </trkpt>
      <trkpt lat="43.72895" lon="3.52183">
        <ele>504</ele>
        <time>2021-09-18T11:44:12+02:00</time>
      </trkpt>
      <trkpt lat="43.72937" lon="3.52164">
        <ele>508</ele>
        <time>2021-09-18T11:44:17+02:00</time>
      </trkpt>
      <trkpt lat="43.72972" lon="3.52129">
        <ele>517</ele>
        <time>2021-09-18T11:44:22+02:00</time>
      </trkpt>
      <trkpt lat="43.72932" lon="3.52125">
        <ele>514</ele>
        <time>2021-09-18T11:44:27+02:00</time>
      </trkpt>
      <trkpt lat="43.72921" lon="3.52114">
        <ele>515</ele>
        <time>2021-09-18T11:44:32+02:00</time>
      </trkpt>
      <trkpt lat="43.72923" lon="3.52059">
        <ele>523</ele>
        <time>2021-09-18T11:44:37+02:00</time>
      </trkpt>
      <trkpt lat="43.72897" lon="3.52052">
        <ele>523</ele>
        <time>2021-09-18T11:44:42+02:00</time>
      </trkpt>
      <trkpt lat="43.72882" lon="3.52014">
        <ele>526</ele>
        <time>2021-09-18T11:44:47+02:00</time>
      </trkpt>
      <trkpt lat="43.72884" lon="3.51979">
        <ele>529</ele>
        <time>2021-09-18T11:44:52+02:00</time>
      </trkpt>
      <trkpt lat="43.72854" lon="3.52012">
        <ele>526</ele>
        <time>2021-09-18T11:44:57+02:00</time>
      </trkpt>
      <trkpt lat="43.7284" lon="3.52018">
        <ele>525</ele>
        <time>2021-09-18T11:45:02+02:00</time>
      </trkpt>
      <trkpt lat="43.72807" lon="3.51999">
        <ele>526</ele>
        <time>2021-09-18T11:45:07+02:00</time>
      </trkpt>
      <trkpt lat="43.7278" lon="3.51989">
        <ele>525</ele>
        <time>2021-09-18T11:45:12+02:00</time>
      </trkpt>
      <trkpt lat="43.72758" lon="3.5199">
        <ele>524</ele>
        <time>2021-09-18T11:45:17+02:00</time>
      </trkpt>
      <trkpt lat="43.72754" lon="3.51977">
        <ele>524</ele>
        <time>2021-09-18T11:45:22+02:00</time>
      </trkpt>
      <trkpt lat="43.72744" lon="3.51886">
        <ele>527</ele>
        <time>2021-09-18T11:45:27+02:00</time>
      </trkpt>
      <trkpt lat="43.72724" lon="3.51881">
        <ele>526</ele>
        <time>2021-09-18T11:45:32+02:00</time>
      </trkpt>
      <trkpt lat="43.72695" lon="3.51906">
        <ele>522</ele>
        <time>2021-09-18T11:45:37+02:00</time>
      </trkpt>
      <trkpt lat="43.72651" lon="3.51961">
        <ele>514</ele>
        <time>2021-09-18T11:45:42+02:00</time>
      </trkpt>
      <trkpt lat="43.72617" lon="3.51992">
        <ele>508</ele>
        <time>2021-09-18T11:45:47+02:00</time>
      </trkpt>
      <trkpt lat="43.72601" lon="3.51995">
        <ele>506</ele>
        <time>2021-09-18T11:45:52+02:00</time>
      </trkpt>
      <trkpt lat="43.72563" lon="3.51991">
        <ele>502</ele>
        <time>2021-09-18T11:45:57+02:00</time>
      </trkpt>
      <trkpt lat="43.72537" lon="3.51964">
        <ele>502</ele>
        <time>2021-09-18T11:46:02+02:00</time>
      </trkpt>
      <trkpt lat="43.72474" lon="3.51899">
        <ele>500</ele>
        <time>2021-09-18T11:46:07+02:00</time>
      </trkpt>
      <trkpt lat="43.72437" lon="3.51892">
        <ele>496</ele>
        <time>2021-09-18T11:46:12+02:00</time>
      </trkpt>
      <trkpt lat="43.72429" lon="3.51841">
        <ele>496</ele>
        <time>2021-09-18T11:46:17+02:00</time>
      </trkpt>
      <trkpt lat="43.72436" lon="3.51812">
        <ele>494</ele>
        <time>2021-09-18T11:46:22+02:00</time>
      </trkpt>
      <trkpt lat="43.72484" lon="3.51711">
        <ele>492</ele>
        <time>2021-09-18T11:46:27+02:00</time>
      </trkpt>
      <trkpt lat="43.72494" lon="3.51664">
        <ele>490</ele>
        <time>2021-09-18T11:46:32+02:00</time>
      </trkpt>
      <trkpt lat="43.72515" lon="3.51623">
        <ele>495</ele>
        <time>2021-09-18T11:46:37+02:00</time>
      </trkpt>
      <trkpt lat="43.7251" lon="3.51579">
        <ele>494</ele>
        <time>2021-09-18T11:46:42+02:00</time>
      </trkpt>
      <trkpt lat="43.72463" lon="3.51559">
        <ele>493</ele>
        <time>2021-09-18T11:46:47+02:00</time>
      </trkpt>
      <trkpt lat="43.72408" lon="3.51571">
        <ele>490</ele>
        <time>2021-09-18T11:46:52+02:00</time>
      </trkpt>
      <trkpt lat="43.72348" lon="3.51547">
        <ele>488</ele>
        <time>2021-09-18T11:46:57+02:00</time>
      </trkpt>
      <trkpt lat="43.72319" lon="3.51558">
        <ele>483</ele>
        <time>2021-09-18T11:47:02+02:00</time>
      </trkpt>
      <trkpt lat="43.72296" lon="3.51542">
        <ele>479</ele>
        <time>2021-09-18T11:47:07+02:00</time>
      </trkpt>
      <trkpt lat="43.72305" lon="3.5143">
        <ele>481</ele>
        <time>2021-09-18T11:47:12+02:00</time>
      </trkpt>
      <trkpt lat="43.72288" lon="3.51379">
        <ele>477</ele>
        <time>2021-09-18T11:47:17+02:00</time>
      </trkpt>
      <trkpt lat="43.72245" lon="3.51337">
        <ele>470</ele>
        <time>2021-09-18T11:47:22+02:00</time>
      </trkpt>
      <trkpt lat="43.72197" lon="3.51325">
        <ele>461</ele>
        <time>2021-09-18T11:47:27+02:00</time>
      </trkpt>
      <trkpt lat="43.72171" lon="3.51295">
        <ele>455</ele>
        <time>2021-09-18T11:47:32+02:00</time>
      </trkpt>
      <trkpt lat="43.72172" lon="3.51272">
        <ele>455</ele>
        <time>2021-09-18T11:47:37+02:00</time>
      </trkpt>
      <trkpt lat="43.72011" lon="3.51338">
        <ele>435</ele>
        <time>2021-09-18T11:47:42+02:00</time>
      </trkpt>
      <trkpt lat="43.71954" lon="3.51385">
        <ele>425</ele>
        <time>2021-09-18T11:47:47+02:00</time>
      </trkpt>
      <trkpt lat="43.71866" lon="3.51424">
        <ele>423</ele>
        <time>2021-09-18T11:47:52+02:00</time>
      </trkpt>
      <trkpt lat="43.71807" lon="3.51474">
        <ele>423</ele>
        <time>2021-09-18T11:47:57+02:00</time>
      </trkpt>
      <trkpt lat="43.7173" lon="3.51529">
        <ele>426</ele>
        <time>2021-09-18T11:48:02+02:00</time>
      </trkpt>
      <trkpt lat="43.71707" lon="3.515">
        <ele>427</ele>
        <time>2021-09-18T11:48:07+02:00</time>
      </trkpt>
      <trkpt lat="43.71691" lon="3.51433">
        <ele>432</ele>
        <time>2021-09-18T11:48:12+02:00</time>
      </trkpt>
      <trkpt lat="43.7168" lon="3.51402">
        <ele>434</ele>
        <time>2021-09-18T11:48:17+02:00</time>
      </trkpt>
      <trkpt lat="43.7167" lon="3.51356">
        <ele>437</ele>
        <time>2021-09-18T11:48:22+02:00</time>
      </trkpt>
      <trkpt lat="43.71636" lon="3.51329">
        <ele>440</ele>
        <time>2021-09-18T11:48:27+02:00</time>
      </trkpt>
      <trkpt lat="43.71563" lon="3.51351">
        <ele>440</ele>
        <time>2021-09-18T11:48:32+02:00</time>
      </trkpt>
      <trkpt lat="43.71508" lon="3.5133">
        <ele>438</ele>
        <time>2021-09-18T11:48:37+02:00</time>
      </trkpt>
      <trkpt lat="43.71428" lon="3.5126">
        <ele>425</ele>
        <time>2021-09-18T11:48:42+02:00</time>
      </trkpt>
      <trkpt lat="43.71379" lon="3.51195">
        <ele>412</ele>
        <time>2021-09-18T11:48:47+02:00</time>
      </trkpt>
      <trkpt lat="43.71355" lon="3.51188">
        <ele>407</ele>
        <time>2021-09-18T11:48:52+02:00</time>
      </trkpt>
      <trkpt lat="43.71327" lon="3.51194">
        <ele>402</ele>
        <time>2021-09-18T11:48:57+02:00</time>
      </trkpt>
      <trkpt lat="43.713" lon="3.51192">
        <ele>397</ele>
        <time>2021-09-18T11:49:02+02:00</time>
      </trkpt>
      <trkpt lat="43.71286" lon="3.51228">
        <ele>396</ele>
        <time>2021-09-18T11:49:07+02:00</time>
      </trkpt>
      <trkpt lat="43.71277" lon="3.51223">
        <ele>394</ele>
        <time>2021-09-18T11:49:12+02:00</time>
      </trkpt>
      <trkpt lat="43.7125" lon="3.51186">
        <ele>388</ele>
        <time>2021-09-18T11:49:17+02:00</time>
      </trkpt>
      <trkpt lat="43.71253" lon="3.5114">
        <ele>385</ele>
        <time>2021-09-18T11:49:22+02:00</time>
      </trkpt>
      <trkpt lat="43.71238" lon="3.51117">
        <ele>379</ele>
        <time>2021-09-18T11:49:27+02:00</time>
      </trkpt>
      <trkpt lat="43.7122" lon="3.51148">
        <ele>379</ele>
        <time>2021-09-18T11:49:32+02:00</time>
      </trkpt>
      <trkpt lat="43.71212" lon="3.51206">
        <ele>379</ele>
        <time>2021-09-18T11:49:37+02:00</time>
      </trkpt>
      <trkpt lat="43.71226" lon="3.51252">
        <ele>382</ele>
        <time>2021-09-18T11:49:42+02:00</time>
      </trkpt>
      <trkpt lat="43.71238" lon="3.51357">
        <ele>380</ele>
        <time>2021-09-18T11:49:47+02:00</time>
      </trkpt>
      <trkpt lat="43.71196" lon="3.51307">
        <ele>374</ele>
        <time>2021-09-18T11:49:52+02:00</time>
      </trkpt>
      <trkpt lat="43.71172" lon="3.51232">
        <ele>370</ele>
        <time>2021-09-18T11:49:57+02:00</time>
      </trkpt>
      <trkpt lat="43.71112" lon="3.51127">
        <ele>358</ele>
        <time>2021-09-18T11:50:02+02:00</time>
      </trkpt>
      <trkpt lat="43.7107" lon="3.51036">
        <ele>346</ele>
        <time>2021-09-18T11:50:07+02:00</time>
      </trkpt>
      <trkpt lat="43.71071" lon="3.50987">
        <ele>342</ele>
        <time>2021-09-18T11:50:12+02:00</time>
      </trkpt>
      <trkpt lat="43.71051" lon="3.50939">
        <ele>334</ele>
        <time>2021-09-18T11:50:17+02:00</time>
      </trkpt>
      <trkpt lat="43.71052" lon="3.5088">
        <ele>329</ele>
        <time>2021-09-18T11:50:22+02:00</time>
      </trkpt>
      <trkpt lat="43.71067" lon="3.50844">
        <ele>326</ele>
        <time>2021-09-18T11:50:27+02:00</time>
      </trkpt>
      <trkpt lat="43.71004" lon="3.50708">
        <ele>320</ele>
        <time>2021-09-18T11:50:32+02:00</time>
      </trkpt>
      <trkpt lat="43.70968" lon="3.50673">
        <ele>317</ele>
        <time>2021-09-18T11:50:37+02:00</time>
      </trkpt>
      <trkpt lat="43.70905" lon="3.50576">
        <ele>311</ele>
        <time>2021-09-18T11:50:42+02:00</time>
      </trkpt>
      <trkpt lat="43.70896" lon="3.50545">
        <ele>306</ele>
        <time>2021-09-18T11:50:47+02:00</time>
      </trkpt>
      <trkpt lat="43.70901" lon="3.50509">
        <ele>304</ele>
        <time>2021-09-18T11:50:52+02:00</time>
      </trkpt>
      <trkpt lat="43.7091" lon="3.5048">
        <ele>303</ele>
        <time>2021-09-18T11:50:57+02:00</time>
      </trkpt>
      <trkpt lat="43.70942" lon="3.50454">
        <ele>301</ele>
        <time>2021-09-18T11:51:02+02:00</time>
      </trkpt>
      <trkpt lat="43.7091" lon="3.50381">
        <ele>298</ele>
        <time>2021-09-18T11:51:07+02:00</time>
      </trkpt>
      <trkpt lat="43.70968" lon="3.50338">
        <ele>302</ele>
        <time>2021-09-18T11:51:12+02:00</time>
      </trkpt>
      <trkpt lat="43.71" lon="3.50269">
        <ele>292</ele>
        <time>2021-09-18T11:51:17+02:00</time>
      </trkpt>
      <trkpt lat="43.71037" lon="3.50226">
        <ele>281</ele>
        <time>2021-09-18T11:51:22+02:00</time>
      </trkpt>
      <trkpt lat="43.71071" lon="3.50175">
        <ele>273</ele>
        <time>2021-09-18T11:51:27+02:00</time>
      </trkpt>
      <trkpt lat="43.71074" lon="3.50123">
        <ele>274</ele>
        <time>2021-09-18T11:51:32+02:00</time>
      </trkpt>
      <trkpt lat="43.7108" lon="3.50087">
        <ele>274</ele>
        <time>2021-09-18T11:51:37+02:00</time>
      </trkpt>
      <trkpt lat="43.71096" lon="3.50074">
        <ele>270</ele>
        <time>2021-09-18T11:51:42+02:00</time>
      </trkpt>
      <trkpt lat="43.71131" lon="3.50074">
        <ele>260</ele>
        <time>2021-09-18T11:51:47+02:00</time>
      </trkpt>
      <trkpt lat="43.71122" lon="3.50123">
        <ele>259</ele>
        <time>2021-09-18T11:51:52+02:00</time>
      </trkpt>
      <trkpt lat="43.7115" lon="3.50089">
        <ele>253</ele>
        <time>2021-09-18T11:51:57+02:00</time>
      </trkpt>
      <trkpt lat="43.71168" lon="3.50035">
        <ele>252</ele>
        <time>2021-09-18T11:52:02+02:00</time>
      </trkpt>
      <trkpt lat="43.71203" lon="3.5002">
        <ele>243</ele>
        <time>2021-09-18T11:52:07+02:00</time>
      </trkpt>
      <trkpt lat="43.71237" lon="3.50003">
        <ele>240</ele>
        <time>2021-09-18T11:52:12+02:00</time>
      </trkpt>
      <trkpt lat="43.71271" lon="3.50003">
        <ele>240</ele>
        <time>2021-09-18T11:52:17+02:00</time>
      </trkpt>
      <trkpt lat="43.71289" lon="3.50003">
        <ele>241</ele>
        <time>2021-09-18T11:52:22+02:00</time>
      </trkpt>
      <trkpt lat="43.7133" lon="3.5001">
        <ele>241</ele>
        <time>2021-09-18T11:52:27+02:00</time>
      </trkpt>
      <trkpt lat="43.71375" lon="3.49982">
        <ele>240</ele>
        <time>2021-09-18T11:52:32+02:00</time>
      </trkpt>
      <trkpt lat="43.71454" lon="3.49984">
        <ele>241</ele>
        <time>2021-09-18T11:52:37+02:00</time>
      </trkpt>
      <trkpt lat="43.71488" lon="3.49969">
        <ele>246</ele>
        <time>2021-09-18T11:52:42+02:00</time>
      </trkpt>
      <trkpt lat="43.71507" lon="3.49958">
        <ele>249</ele>
        <time>2021-09-18T11:52:47+02:00</time>
      </trkpt>
      <trkpt lat="43.71531" lon="3.4993">
        <ele>250</ele>
        <time>2021-09-18T11:52:52+02:00</time>
      </trkpt>
      <trkpt lat="43.71547" lon="3.49889">
        <ele>255</ele>
        <time>2021-09-18T11:52:57+02:00</time>
      </trkpt>
      <trkpt lat="43.71547" lon="3.49857">
        <ele>259</ele>
        <time>2021-09-18T11:53:02+02:00</time>
      </trkpt>
      <trkpt lat="43.71499" lon="3.49887">
        <ele>257</ele>
        <time>2021-09-18T11:53:07+02:00</time>
      </trkpt>
      <trkpt lat="43.71452" lon="3.49834">
        <ele>268</ele>
        <time>2021-09-18T11:53:12+02:00</time>
      </trkpt>
      <trkpt lat="43.71421" lon="3.49801">
        <ele>270</ele>
        <time>2021-09-18T11:53:17+02:00</time>
      </trkpt>
      <trkpt lat="43.71417" lon="3.49741">
        <ele>270</ele>
        <time>2021-09-18T11:53:22+02:00</time>
      </trkpt>
      <trkpt lat="43.71426" lon="3.49698">
        <ele>272</ele>
        <time>2021-09-18T11:53:27+02:00</time>
      </trkpt>
      <trkpt lat="43.71415" lon="3.4966">
        <ele>277</ele>
        <time>2021-09-18T11:53:32+02:00</time>
      </trkpt>
      <trkpt lat="43.71313" lon="3.4963">
        <ele>273</ele>
        <time>2021-09-18T11:53:37+02:00</time>
      </trkpt>
      <trkpt lat="43.71238" lon="3.4957">
        <ele>275</ele>
        <time>2021-09-18T11:53:42+02:00</time>
      </trkpt>
      <trkpt lat="43.71235" lon="3.49501">
        <ele>276</ele>
        <time>2021-09-18T11:53:47+02:00</time>
      </trkpt>
      <trkpt lat="43.71214" lon="3.49407">
        <ele>280</ele>
        <time>2021-09-18T11:53:52+02:00</time>
      </trkpt>
    </trkseg>
  </trk>
</gpx>